Time;durP1;ratioP1;P1;durP2;ratioP2;P2;SDS_P1;SDS_P2;PMS_P1;PMS_P2;Temp;Humidity;BMP_temperature;BMP_pressure;BME280_temperature;BME280_humidity;BME280_pressure;Samples;Min_cycle;Max_cycle;Signal;HPM_P1;HPM_P2
2022/04/03 00:01:12;;;;;;;11.75;7.05;;;-0.40;99.90;;;;;;5114543;27;20036;-74
2022/04/03 00:03:38;;;;;;;16.30;6.22;;;-0.30;99.90;;;;;;5090060;28;20048;-74
2022/04/03 00:06:03;;;;;;;13.45;6.30;;;-0.30;99.90;;;;;;5090826;28;20044;-74
2022/04/03 00:08:31;;;;;;;17.95;6.43;;;-0.30;99.90;;;;;;5108806;27;20067;-75
2022/04/03 00:10:57;;;;;;;10.43;5.60;;;-0.20;99.90;;;;;;5131638;27;20046;-74
2022/04/03 00:13:23;;;;;;;12.10;6.68;;;-0.20;99.90;;;;;;5125082;27;20035;-73
2022/04/03 00:15:48;;;;;;;14.35;5.75;;;-0.20;99.90;;;;;;5127473;27;20047;-74
2022/04/03 00:18:14;;;;;;;9.73;5.38;;;-0.10;99.90;;;;;;5126307;27;20051;-74
2022/04/03 00:20:41;;;;;;;11.32;4.70;;;-0.10;99.90;;;;;;5072512;28;20051;-74
2022/04/03 00:23:07;;;;;;;8.32;4.40;;;0.00;99.90;;;;;;5089792;28;20160;-75
2022/04/03 00:25:34;;;;;;;5.82;3.85;;;0.10;99.90;;;;;;5090152;28;20052;-74
2022/04/03 00:28:00;;;;;;;6.03;3.85;;;0.10;99.90;;;;;;5095863;28;20043;-75
2022/04/03 00:30:25;;;;;;;12.73;3.88;;;0.10;99.90;;;;;;5109666;27;20123;-74
2022/04/03 00:32:51;;;;;;;5.93;3.72;;;0.20;99.90;;;;;;5090795;28;20115;-74
2022/04/03 00:35:17;;;;;;;7.35;3.13;;;0.20;99.90;;;;;;5106577;27;20040;-74
2022/04/03 00:37:43;;;;;;;8.05;3.33;;;0.30;99.90;;;;;;5093353;28;20040;-74
2022/04/03 00:40:09;;;;;;;4.78;3.17;;;0.40;99.90;;;;;;5110167;28;20047;-75
2022/04/03 00:42:37;;;;;;;7.60;3.92;;;0.30;99.90;;;;;;5107950;28;20078;-76
2022/04/03 00:45:06;;;;;;;7.90;3.10;;;0.40;99.90;;;;;;5090665;28;20051;-75
2022/04/03 00:47:32;;;;;;;8.60;3.28;;;0.40;99.90;;;;;;5110214;28;20042;-77
2022/04/03 00:49:59;;;;;;;7.20;4.05;;;0.30;99.90;;;;;;5092828;28;20394;-74
2022/04/03 00:52:25;;;;;;;6.50;3.05;;;0.50;99.90;;;;;;5108666;28;20043;-74
2022/04/03 00:54:51;;;;;;;5.50;3.20;;;0.40;99.90;;;;;;5109059;28;20124;-74
2022/04/03 00:57:18;;;;;;;4.53;2.15;;;0.40;99.90;;;;;;5110919;28;20082;-74
2022/04/03 00:59:44;;;;;;;6.20;3.25;;;0.50;99.90;;;;;;5114538;27;20054;-75
2022/04/03 01:02:10;;;;;;;6.07;2.65;;;0.50;99.90;;;;;;5104630;28;20444;-74
2022/04/03 01:04:38;;;;;;;4.13;2.92;;;0.60;99.90;;;;;;5110424;28;20043;-74
2022/04/03 01:07:04;;;;;;;4.03;2.60;;;0.70;99.90;;;;;;5110274;27;20048;-74
2022/04/03 01:09:29;;;;;;;5.00;2.10;;;0.70;99.90;;;;;;5089311;28;20040;-74
2022/04/03 01:11:56;;;;;;;6.20;3.30;;;0.80;99.90;;;;;;5090313;28;20055;-74
2022/04/03 01:14:36;;;;;;;10.63;3.40;;;0.90;99.90;;;;;;5097914;28;20405;-76
2022/04/03 01:17:02;;;;;;;9.50;3.05;;;0.90;99.90;;;;;;5094861;28;20035;-74
2022/04/03 01:19:28;;;;;;;8.38;3.97;;;1.10;99.90;;;;;;5091786;28;20135;-74
2022/04/03 01:21:54;;;;;;;4.68;2.85;;;1.00;99.90;;;;;;5103931;28;20119;-74
2022/04/03 01:24:21;;;;;;;5.90;3.00;;;1.10;99.90;;;;;;5087837;28;20048;-74
2022/04/03 01:26:47;;;;;;;6.80;3.38;;;1.10;99.90;;;;;;5100073;28;20051;-74
2022/04/03 01:29:13;;;;;;;10.05;3.22;;;1.10;99.90;;;;;;5095523;28;20046;-74
2022/04/03 01:31:39;;;;;;;3.33;2.65;;;1.10;99.90;;;;;;5094220;28;20035;-74
2022/04/03 01:34:04;;;;;;;3.38;2.47;;;1.10;99.90;;;;;;5089693;28;20131;-74
2022/04/03 01:36:30;;;;;;;3.15;2.55;;;1.10;99.90;;;;;;5079496;28;20035;-74
2022/04/03 01:38:55;;;;;;;6.35;2.78;;;1.00;99.90;;;;;;5092354;28;20044;-74
2022/04/03 01:41:21;;;;;;;5.72;2.95;;;0.90;99.90;;;;;;5092149;28;20078;-73
2022/04/03 01:43:48;;;;;;;3.38;2.80;;;0.90;99.90;;;;;;5109436;28;20427;-74
2022/04/03 01:46:13;;;;;;;3.78;2.38;;;0.90;99.90;;;;;;5105254;28;20075;-74
2022/04/03 01:48:39;;;;;;;12.70;2.70;;;0.90;99.90;;;;;;5109953;28;20524;-74
2022/04/03 01:51:05;;;;;;;7.03;3.67;;;0.80;99.90;;;;;;5108575;28;20071;-73
2022/04/03 01:53:31;;;;;;;4.35;3.00;;;0.80;99.90;;;;;;5108159;28;20048;-73
2022/04/03 01:56:00;;;;;;;4.68;2.95;;;0.70;99.90;;;;;;5106013;28;20043;-73
2022/04/03 01:58:25;;;;;;;5.32;3.22;;;0.70;99.90;;;;;;5102054;28;20447;-73
2022/04/03 02:00:51;;;;;;;3.45;2.70;;;0.70;99.90;;;;;;5103230;28;20035;-73
2022/04/03 02:03:17;;;;;;;8.48;4.32;;;0.70;99.90;;;;;;5089486;28;20050;-73
2022/04/03 02:05:43;;;;;;;13.70;7.10;;;0.70;99.90;;;;;;5090055;28;20052;-73
2022/04/03 02:08:09;;;;;;;9.48;6.20;;;0.70;99.90;;;;;;5107927;28;20497;-73
2022/04/03 02:10:34;;;;;;;7.57;4.57;;;0.70;99.90;;;;;;5086985;28;20051;-74
2022/04/03 02:13:00;;;;;;;5.65;3.30;;;0.60;99.90;;;;;;5094378;28;20146;-74
2022/04/03 02:15:26;;;;;;;6.80;2.95;;;0.60;99.90;;;;;;5102171;28;20047;-73
2022/04/03 02:17:51;;;;;;;6.35;3.97;;;0.50;99.90;;;;;;5100118;28;20036;-74
2022/04/03 02:20:17;;;;;;;6.72;3.30;;;0.50;99.90;;;;;;5096490;28;20059;-74
2022/04/03 02:22:42;;;;;;;3.97;2.83;;;0.40;99.90;;;;;;5110089;28;20075;-75
2022/04/03 02:25:13;;;;;;;5.03;2.75;;;0.40;99.90;;;;;;5098595;28;20069;-74
2022/04/03 02:27:39;;;;;;;4.65;2.85;;;0.30;99.90;;;;;;5089317;28;20040;-74
2022/04/03 02:30:09;;;;;;;4.53;2.35;;;0.30;99.90;;;;;;5089909;28;20044;-74
2022/04/03 02:32:36;;;;;;;4.95;4.05;;;0.30;99.90;;;;;;5105474;28;20040;-74
2022/04/03 02:35:02;;;;;;;4.80;2.60;;;0.30;99.90;;;;;;5103943;28;20040;-74
2022/04/03 02:37:29;;;;;;;5.55;3.20;;;0.20;99.90;;;;;;5094274;28;20036;-73
2022/04/03 02:39:55;;;;;;;6.22;2.97;;;0.20;99.90;;;;;;5110250;28;20050;-73
2022/04/03 02:42:20;;;;;;;43.80;4.38;;;0.20;99.90;;;;;;5100003;28;20316;-74
2022/04/03 02:44:46;;;;;;;7.22;3.20;;;0.20;99.90;;;;;;5092495;28;20044;-74
2022/04/03 02:47:12;;;;;;;6.55;2.65;;;0.20;99.90;;;;;;5097275;27;20050;-74
2022/04/03 02:49:38;;;;;;;5.22;2.08;;;0.10;99.90;;;;;;5112403;27;20497;-74
2022/04/03 02:52:03;;;;;;;8.05;2.35;;;0.00;99.90;;;;;;5112969;28;20070;-75
2022/04/03 02:54:30;;;;;;;3.35;2.38;;;0.10;99.90;;;;;;5113331;27;20389;-74
2022/04/03 02:56:56;;;;;;;14.75;4.40;;;0.00;99.90;;;;;;5105694;28;20040;-74
2022/04/03 02:59:22;;;;;;;5.82;2.38;;;0.00;99.90;;;;;;5090884;28;20062;-73
2022/04/03 03:01:47;;;;;;;4.20;3.20;;;0.00;99.90;;;;;;5112986;28;20070;-74
2022/04/03 03:04:14;;;;;;;3.70;2.88;;;0.00;99.90;;;;;;5104613;28;20047;-75
2022/04/03 03:06:40;;;;;;;7.50;3.55;;;0.00;99.90;;;;;;5106822;28;20359;-74
2022/04/03 03:09:06;;;;;;;7.60;3.25;;;0.00;99.90;;;;;;5111327;28;20038;-75
2022/04/03 03:11:32;;;;;;;8.82;2.35;;;0.10;99.90;;;;;;5104692;28;20059;-74
2022/04/03 03:13:57;;;;;;;4.70;3.00;;;0.10;99.90;;;;;;5099572;27;20063;-73
2022/04/03 03:16:23;;;;;;;5.55;3.60;;;0.10;99.90;;;;;;5092456;27;20039;-75
2022/04/03 03:18:48;;;;;;;6.18;2.90;;;0.10;99.90;;;;;;5108858;28;20058;-73
2022/04/03 03:21:15;;;;;;;3.35;2.85;;;0.20;99.90;;;;;;5105848;27;20047;-73
2022/04/03 03:23:41;;;;;;;4.05;2.22;;;0.00;99.90;;;;;;5098890;27;20470;-73
2022/04/03 03:26:08;;;;;;;9.27;3.45;;;0.10;99.90;;;;;;5102556;27;20502;-73
2022/04/03 03:28:34;;;;;;;4.50;2.90;;;0.10;99.90;;;;;;5089977;28;20044;-74
2022/04/03 03:30:59;;;;;;;2.92;2.20;;;0.00;99.90;;;;;;5091526;28;20044;-73
2022/04/03 03:33:25;;;;;;;7.43;3.10;;;0.10;99.90;;;;;;5091487;28;20498;-73
2022/04/03 03:35:51;;;;;;;3.97;2.30;;;0.00;99.90;;;;;;5107804;27;20546;-73
2022/04/03 03:38:16;;;;;;;5.10;2.88;;;0.00;99.90;;;;;;5097805;28;20036;-73
2022/04/03 03:40:42;;;;;;;4.20;2.50;;;0.00;99.90;;;;;;5091392;28;20409;-74
2022/04/03 03:43:09;;;;;;;9.63;3.53;;;0.00;99.90;;;;;;5110703;28;20578;-75
2022/04/03 03:45:36;;;;;;;3.92;2.38;;;-0.10;99.90;;;;;;5108084;27;20051;-74
2022/04/03 03:48:01;;;;;;;6.65;2.97;;;0.00;99.90;;;;;;5106508;28;20078;-74
2022/04/03 03:50:27;;;;;;;4.60;2.00;;;0.00;99.90;;;;;;5101123;27;20478;-74
2022/04/03 03:52:52;;;;;;;3.85;1.58;;;0.00;99.90;;;;;;5125718;27;20039;-74
2022/04/03 03:55:18;;;;;;;4.03;2.33;;;-0.10;99.90;;;;;;5131384;27;20100;-74
2022/04/03 03:57:45;;;;;;;5.68;2.15;;;0.00;99.90;;;;;;5124144;27;20108;-74
2022/04/03 04:00:11;;;;;;;4.53;2.78;;;0.00;99.90;;;;;;5130578;27;20453;-75
2022/04/03 04:02:37;;;;;;;3.55;1.85;;;0.00;99.90;;;;;;5132167;27;20043;-75
2022/04/03 04:05:04;;;;;;;2.30;1.65;;;0.00;99.90;;;;;;5106091;27;20112;-74
2022/04/03 04:07:43;;;;;;;3.83;1.60;;;0.10;99.90;;;;;;5098521;28;20110;-75
2022/04/03 04:10:12;;;;;;;4.47;1.55;;;0.00;99.90;;;;;;5106858;28;20035;-74
2022/04/03 04:12:41;;;;;;;6.65;1.73;;;0.00;99.90;;;;;;5111354;28;20052;-74
2022/04/03 04:15:08;;;;;;;10.53;3.30;;;0.00;99.90;;;;;;5089345;28;20403;-74
2022/04/03 04:17:38;;;;;;;6.18;2.20;;;0.00;99.90;;;;;;5095611;27;20063;-73
2022/04/03 04:20:12;;;;;;;2.97;2.25;;;0.00;99.90;;;;;;5091923;28;20315;-73
2022/04/03 04:22:39;;;;;;;3.97;2.50;;;0.00;99.90;;;;;;5107134;27;20048;-74
2022/04/03 04:25:05;;;;;;;3.78;1.88;;;0.10;99.90;;;;;;5088727;28;20052;-75
2022/04/03 04:27:31;;;;;;;22.75;2.80;;;0.00;99.90;;;;;;5089543;28;20032;-73
2022/04/03 04:29:57;;;;;;;3.58;1.90;;;-0.10;99.90;;;;;;5089939;28;20088;-74
2022/04/03 04:32:24;;;;;;;5.20;2.30;;;0.00;99.90;;;;;;5088868;28;20430;-73
2022/04/03 04:34:50;;;;;;;4.13;1.77;;;-0.10;99.90;;;;;;5096002;28;20051;-74
2022/04/03 04:37:17;;;;;;;3.88;2.22;;;-0.10;99.90;;;;;;5090770;28;20474;-74
2022/04/03 04:39:43;;;;;;;4.45;2.03;;;-0.10;99.90;;;;;;5101150;28;20405;-74
2022/04/03 04:42:08;;;;;;;6.50;1.95;;;-0.10;99.90;;;;;;5090757;28;20123;-73
2022/04/03 04:44:34;;;;;;;3.58;2.38;;;-0.10;99.90;;;;;;5089183;28;20111;-74
2022/04/03 04:46:59;;;;;;;3.83;1.70;;;-0.10;99.90;;;;;;5089029;27;20523;-74
2022/04/03 04:49:25;;;;;;;2.35;1.65;;;-0.10;99.90;;;;;;5098992;27;20039;-74
2022/04/03 04:51:51;;;;;;;3.08;1.50;;;-0.10;99.90;;;;;;5099871;28;20131;-75
2022/04/03 04:54:16;;;;;;;3.28;2.45;;;-0.20;99.90;;;;;;5095185;28;20040;-73
2022/04/03 04:56:42;;;;;;;5.15;1.95;;;-0.20;99.90;;;;;;5091649;28;20048;-75
2022/04/03 04:59:07;;;;;;;4.88;2.47;;;-0.20;99.90;;;;;;5109639;27;20039;-74
2022/04/03 05:01:33;;;;;;;7.50;2.60;;;-0.20;99.90;;;;;;5109559;28;20054;-74
2022/04/03 05:03:58;;;;;;;5.63;2.08;;;-0.20;99.90;;;;;;5110178;28;20075;-74
2022/04/03 05:06:26;;;;;;;3.60;2.42;;;-0.20;99.90;;;;;;5108591;27;20092;-74
2022/04/03 05:08:55;;;;;;;12.20;2.85;;;-0.20;99.90;;;;;;5099318;28;20131;-73
2022/04/03 05:11:22;;;;;;;6.25;2.05;;;-0.30;99.90;;;;;;5093402;28;20046;-75
2022/04/03 05:13:49;;;;;;;1.85;1.65;;;-0.20;99.90;;;;;;5089665;28;20036;-75
2022/04/03 05:16:15;;;;;;;4.72;1.90;;;-0.30;99.90;;;;;;5090211;28;20090;-74
2022/04/03 05:18:41;;;;;;;3.03;1.73;;;-0.30;99.90;;;;;;5104269;28;20083;-74
2022/04/03 05:21:08;;;;;;;5.72;3.28;;;-0.30;99.90;;;;;;5098758;28;20474;-75
2022/04/03 05:23:34;;;;;;;4.18;2.42;;;-0.30;99.90;;;;;;5089038;27;20055;-75
2022/04/03 05:25:59;;;;;;;2.22;1.92;;;-0.30;99.90;;;;;;5093508;28;20043;-76
2022/04/03 05:28:26;;;;;;;2.72;1.80;;;-0.20;99.90;;;;;;5107097;28;20079;-74
2022/04/03 05:30:52;;;;;;;2.40;1.80;;;-0.20;99.90;;;;;;5101034;27;20897;-74
2022/04/03 05:33:18;;;;;;;6.13;2.85;;;-0.10;99.90;;;;;;5088249;28;20478;-75
2022/04/03 05:35:44;;;;;;;3.25;2.03;;;0.00;99.90;;;;;;5105435;27;20054;-74
2022/04/03 05:38:10;;;;;;;4.32;2.03;;;0.10;99.90;;;;;;5108927;28;20035;-75
2022/04/03 05:40:36;;;;;;;4.05;1.70;;;0.20;99.90;;;;;;5109815;28;20646;-74
2022/04/03 05:43:02;;;;;;;1.92;1.60;;;0.30;99.90;;;;;;5108552;28;20115;-73
2022/04/03 05:45:27;;;;;;;4.65;2.40;;;0.40;99.90;;;;;;5091174;28;20046;-74
2022/04/03 05:47:54;;;;;;;3.25;2.17;;;0.40;99.90;;;;;;5094778;28;20063;-74
2022/04/03 05:50:20;;;;;;;6.05;1.88;;;0.40;99.90;;;;;;5095669;28;20048;-72
2022/04/03 05:52:48;;;;;;;2.67;1.75;;;0.50;99.90;;;;;;5090045;28;20120;-74
2022/04/03 05:55:16;;;;;;;4.50;1.15;;;0.50;99.90;;;;;;5088610;28;20517;-74
2022/04/03 05:57:42;;;;;;;5.93;1.73;;;0.50;99.90;;;;;;5102967;28;20036;-75
2022/04/03 06:00:12;;;;;;;5.30;2.00;;;0.60;99.90;;;;;;5107359;28;20040;-74
2022/04/03 06:02:56;;;;;;;19.02;3.00;;;0.90;99.90;;;;;;5108132;28;20043;-75
2022/04/03 06:05:25;;;;;;;6.20;2.15;;;1.20;99.90;;;;;;5105534;28;20122;-75
2022/04/03 06:07:51;;;;;;;6.68;2.03;;;1.40;99.90;;;;;;5101387;28;20039;-75
2022/04/03 06:10:19;;;;;;;4.82;1.15;;;1.60;99.90;;;;;;5104340;28;20041;-73
2022/04/03 06:13:03;;;;;;;5.45;2.42;;;1.60;99.90;;;;;;5104943;27;20051;-74
2022/04/03 06:15:34;;;;;;;6.95;2.35;;;1.60;99.90;;;;;;5099370;27;20043;-75
2022/04/03 06:18:04;;;;;;;6.13;2.10;;;1.90;99.90;;;;;;5092967;28;20398;-76
2022/04/03 06:20:30;;;;;;;5.97;1.48;;;2.00;99.90;;;;;;5092814;28;20153;-74
2022/04/03 06:22:56;;;;;;;8.15;2.65;;;1.90;99.90;;;;;;5119351;27;20124;-73
2022/04/03 06:25:22;;;;;;;8.52;1.73;;;1.70;99.90;;;;;;5109713;28;20077;-76
2022/04/03 06:27:48;;;;;;;3.78;1.95;;;1.70;99.90;;;;;;5107788;28;20051;-77
2022/04/03 06:30:14;;;;;;;7.32;1.40;;;1.70;99.90;;;;;;5105791;28;20040;-76
2022/04/03 06:32:40;;;;;;;2.58;1.60;;;1.60;99.90;;;;;;5112085;28;20050;-77
2022/04/03 06:35:06;;;;;;;4.35;1.63;;;1.60;99.90;;;;;;5111671;28;20825;-76
2022/04/03 06:37:32;;;;;;;4.97;1.90;;;1.60;99.90;;;;;;5106403;28;20054;-78
2022/04/03 06:39:58;;;;;;;3.33;2.13;;;1.50;99.90;;;;;;5108683;28;20043;-77
2022/04/03 06:42:24;;;;;;;5.47;2.58;;;1.50;99.90;;;;;;5111949;27;20035;-76
2022/04/03 06:44:53;;;;;;;4.68;2.20;;;1.50;99.90;;;;;;5106813;28;20082;-76
2022/04/03 06:47:19;;;;;;;5.22;2.50;;;1.50;99.90;;;;;;5093233;28;20032;-77
2022/04/03 06:49:44;;;;;;;3.20;1.73;;;1.50;99.90;;;;;;5107744;28;20044;-77
2022/04/03 06:52:10;;;;;;;3.58;1.45;;;1.60;99.90;;;;;;5112155;28;20396;-77
2022/04/03 06:54:36;;;;;;;10.18;2.35;;;1.70;99.90;;;;;;5110270;28;20158;-76
2022/04/03 06:57:03;;;;;;;7.03;1.98;;;1.90;99.90;;;;;;5102015;27;20135;-78
2022/04/03 06:59:29;;;;;;;5.22;2.13;;;2.00;99.90;;;;;;5099104;28;20040;-76
2022/04/03 07:01:55;;;;;;;8.45;2.67;;;3.10;99.90;;;;;;5100821;28;20082;-76
2022/04/03 07:04:21;;;;;;;6.40;2.10;;;3.10;99.90;;;;;;5101180;27;20063;-76
2022/04/03 07:06:46;;;;;;;9.27;2.30;;;2.90;99.90;;;;;;5096054;27;20043;-75
2022/04/03 07:09:12;;;;;;;1.83;1.13;;;2.90;99.90;;;;;;5090445;28;20046;-76
2022/04/03 07:11:37;;;;;;;6.70;1.35;;;3.00;99.90;;;;;;5091823;28;20113;-77
2022/04/03 07:14:06;;;;;;;3.63;1.05;;;3.10;99.90;;;;;;5107697;28;20039;-75
2022/04/03 07:16:32;;;;;;;3.28;1.73;;;3.30;99.90;;;;;;5074459;28;20130;-76
2022/04/03 07:18:57;;;;;;;4.63;1.98;;;3.40;99.90;;;;;;5102991;28;20236;-76
2022/04/03 07:21:23;;;;;;;6.38;1.80;;;3.70;99.90;;;;;;5095413;28;20071;-77
2022/04/03 07:23:53;;;;;;;3.47;1.13;;;3.90;99.90;;;;;;5108532;28;20092;-77
2022/04/03 07:26:18;;;;;;;5.07;2.50;;;4.20;99.90;;;;;;5110318;28;20087;-75
2022/04/03 07:28:45;;;;;;;4.30;1.75;;;4.50;99.90;;;;;;5101481;27;20089;-76
2022/04/03 07:31:11;;;;;;;7.75;1.30;;;4.70;99.90;;;;;;5103448;28;20074;-75
2022/04/03 07:33:36;;;;;;;4.07;1.17;;;4.80;99.90;;;;;;5099789;28;20520;-76
2022/04/03 07:36:03;;;;;;;7.03;1.23;;;4.80;99.90;;;;;;5091310;28;20093;-76
2022/04/03 07:38:29;;;;;;;2.92;1.00;;;4.80;99.90;;;;;;5095290;28;20044;-75
2022/04/03 07:40:55;;;;;;;3.53;1.20;;;4.90;99.90;;;;;;5091147;28;20371;-75
2022/04/03 07:43:22;;;;;;;4.03;1.10;;;5.10;99.90;;;;;;5093580;27;20054;-77
2022/04/03 07:45:49;;;;;;;1.98;1.10;;;5.10;99.90;;;;;;5132796;27;20035;-75
2022/04/03 07:48:16;;;;;;;5.00;1.08;;;5.20;99.90;;;;;;5098970;27;20044;-77
2022/04/03 07:50:42;;;;;;;2.55;0.93;;;5.30;99.90;;;;;;5108335;28;20055;-74
2022/04/03 07:53:07;;;;;;;10.88;1.63;;;5.30;99.90;;;;;;5123543;27;20043;-75
2022/04/03 07:55:33;;;;;;;6.22;2.40;;;5.50;99.90;;;;;;5102855;28;20332;-75
2022/04/03 07:57:59;;;;;;;3.03;0.75;;;5.40;99.90;;;;;;5094047;28;20040;-75
2022/04/03 08:00:24;;;;;;;5.65;1.10;;;5.30;99.90;;;;;;5082008;28;20051;-76
2022/04/03 08:02:50;;;;;;;4.78;1.10;;;5.30;99.90;;;;;;5091465;28;20040;-75
2022/04/03 08:05:15;;;;;;;2.67;1.05;;;5.60;99.90;;;;;;5092628;28;20044;-76
2022/04/03 08:07:46;;;;;;;4.28;1.48;;;5.60;99.90;;;;;;5098428;28;20122;-75
2022/04/03 08:10:15;;;;;;;3.78;1.02;;;5.50;99.90;;;;;;5090413;28;20444;-77
2022/04/03 08:12:42;;;;;;;1.23;0.75;;;5.70;99.90;;;;;;5094524;28;20088;-76
2022/04/03 08:15:12;;;;;;;2.28;1.05;;;5.80;99.90;;;;;;5105416;28;20052;-77
2022/04/03 08:17:39;;;;;;;;;;;5.90;99.90;;;;;;5106239;27;20474;-74
2022/04/03 08:20:06;;;;;;;3.63;1.30;;;5.80;99.90;;;;;;5111025;28;20285;-79
2022/04/03 08:22:32;;;;;;;1.25;0.85;;;5.90;99.90;;;;;;5099218;28;20410;-79
2022/04/03 08:24:57;;;;;;;2.83;0.82;;;5.80;99.90;;;;;;5075576;28;20082;-79
2022/04/03 08:27:23;;;;;;;3.13;1.17;;;6.00;99.90;;;;;;5109332;28;20105;-80
2022/04/03 08:29:49;;;;;;;1.27;0.70;;;6.10;99.90;;;;;;5106068;28;20051;-79
2022/04/03 08:32:15;;;;;;;2.45;0.55;;;6.20;99.90;;;;;;5096263;28;20115;-80
2022/04/03 08:34:41;;;;;;;1.33;0.60;;;6.20;99.90;;;;;;5098645;28;20531;-78
2022/04/03 08:37:07;;;;;;;1.45;0.52;;;6.00;99.90;;;;;;5095960;28;20040;-76
2022/04/03 08:39:33;;;;;;;3.20;0.45;;;6.10;99.90;;;;;;5092848;28;20058;-77
2022/04/03 08:41:59;;;;;;;7.65;1.27;;;6.10;99.90;;;;;;5109145;28;20058;-77
2022/04/03 08:44:25;;;;;;;4.38;0.40;;;6.30;99.90;;;;;;5108987;28;20417;-78
2022/04/03 08:46:51;;;;;;;3.92;0.73;;;6.40;99.90;;;;;;5082072;28;20050;-78
2022/04/03 08:49:18;;;;;;;2.28;0.77;;;6.50;99.90;;;;;;5096053;28;20039;-76
2022/04/03 08:51:44;;;;;;;1.58;0.60;;;6.70;99.90;;;;;;5101006;28;20509;-82
2022/04/03 08:54:10;;;;;;;2.28;0.60;;;6.70;99.90;;;;;;5095699;28;20110;-82
2022/04/03 08:56:36;;;;;;;1.05;0.82;;;6.60;99.90;;;;;;5088853;28;20632;-81
2022/04/03 08:59:02;;;;;;;1.88;0.82;;;6.70;99.90;;;;;;5091124;28;20063;-81
2022/04/03 09:01:29;;;;;;;1.27;0.30;;;6.90;99.90;;;;;;5096308;28;20401;-80
2022/04/03 09:03:55;;;;;;;1.30;0.65;;;6.90;99.90;;;;;;5090578;28;20042;-81
2022/04/03 09:06:21;;;;;;;1.30;0.40;;;7.00;99.90;;;;;;5105238;28;20048;-80
2022/04/03 09:08:48;;;;;;;6.82;0.68;;;7.30;99.90;;;;;;5099235;28;20040;-79
2022/04/03 09:11:15;;;;;;;2.05;0.80;;;7.20;99.90;;;;;;5106413;28;20501;-80
2022/04/03 09:13:41;;;;;;;2.25;0.47;;;7.00;99.90;;;;;;5105391;28;20032;-80
2022/04/03 09:16:07;;;;;;;10.75;2.35;;;7.20;99.90;;;;;;5096397;28;20040;-81
2022/04/03 09:18:47;;;;;;;5.65;0.63;;;7.30;99.90;;;;;;5096911;28;20048;-80
2022/04/03 09:21:20;;;;;;;1.85;1.17;;;7.10;99.90;;;;;;5088990;28;20603;-81
2022/04/03 09:24:04;;;;;;;7.53;2.45;;;7.20;99.90;;;;;;5082893;28;20051;-80
2022/04/03 09:26:31;;;;;;;8.75;4.25;;;7.30;99.90;;;;;;5094137;28;20055;-80
2022/04/03 09:29:16;;;;;;;9.38;4.88;;;7.40;99.90;;;;;;5093324;28;20043;-79
2022/04/03 09:31:44;;;;;;;3.08;1.42;;;6.90;99.90;;;;;;5095583;28;20479;-80
2022/04/03 09:34:20;;;;;;;3.67;1.08;;;7.50;99.90;;;;;;5108771;28;20035;-83
2022/04/03 09:36:57;;;;;;;1.08;0.73;;;7.50;99.90;;;;;;5109394;27;20062;-82
2022/04/03 09:39:24;;;;;;;8.98;5.75;;;7.40;99.90;;;;;;5099713;28;20032;-81
2022/04/03 09:41:58;;;;;;;7.03;3.22;;;7.10;99.90;;;;;;5089666;28;20047;-79
2022/04/03 09:44:35;;;;;;;4.07;1.50;;;7.10;99.90;;;;;;5089019;28;20451;-80
2022/04/03 09:47:13;;;;;;;9.38;1.02;;;7.60;99.90;;;;;;5102323;28;20182;-80
2022/04/03 09:49:41;;;;;;;1.65;0.50;;;7.80;99.90;;;;;;5109213;28;20105;-81
2022/04/03 09:52:07;;;;;;;2.90;1.05;;;7.80;99.90;;;;;;5109856;28;20089;-81
2022/04/03 09:54:32;;;;;;;2.20;1.40;;;7.30;99.90;;;;;;5106709;27;20109;-81
2022/04/03 09:57:21;;;;;;;3.38;1.38;;;7.30;99.90;;;;;;5094380;28;20069;-81
2022/04/03 09:59:48;;;;;;;7.85;2.70;;;7.00;99.90;;;;;;5088872;28;20032;-78
2022/04/03 10:02:14;;;;;;;22.95;4.85;;;6.80;99.90;;;;;;5089089;28;20101;-80
2022/04/03 10:04:40;;;;;;;13.60;1.45;;;6.80;99.90;;;;;;5089656;28;20067;-81
2022/04/03 10:07:07;;;;;;;9.07;4.43;;;6.60;99.90;;;;;;5088427;28;20043;-80
2022/04/03 10:09:34;;;;;;;8.02;2.55;;;6.60;99.90;;;;;;5086393;28;20054;-79
2022/04/03 10:11:59;;;;;;;6.72;1.88;;;6.50;99.90;;;;;;5111395;28;21897;-81
2022/04/03 10:14:27;;;;;;;13.95;8.80;;;6.60;99.90;;;;;;5092124;28;20073;-80
2022/04/03 10:16:52;;;;;;;3.65;0.90;;;7.10;99.90;;;;;;5090878;28;20035;-80
2022/04/03 10:19:18;;;;;;;2.75;0.82;;;7.40;99.90;;;;;;5097121;28;20054;-80
2022/04/03 10:21:49;;;;;;;2.00;0.25;;;7.90;99.90;;;;;;5108485;28;20047;-82
2022/04/03 10:24:18;;;;;;;3.05;1.50;;;8.10;99.90;;;;;;5088137;28;20048;-80
2022/04/03 10:26:59;;;;;;;7.35;6.00;;;8.30;99.90;;;;;;5102895;28;20051;-82
2022/04/03 10:29:30;;;;;;;2.38;0.70;;;8.50;99.90;;;;;;5088892;28;20090;-79
2022/04/03 10:32:03;;;;;;;0.55;0.47;;;8.30;99.90;;;;;;5093688;28;20042;-80
2022/04/03 10:34:29;;;;;;;1.67;1.00;;;8.00;99.90;;;;;;5090272;27;20039;-81
2022/04/03 10:36:55;;;;;;;3.38;1.38;;;7.50;99.90;;;;;;5088384;28;20393;-80
2022/04/03 10:39:29;;;;;;;1.42;0.98;;;6.90;99.90;;;;;;5087185;28;20035;-80
2022/04/03 10:42:14;;;;;;;1.25;1.13;;;6.10;99.90;;;;;;5101660;28;20056;-81
2022/04/03 10:44:40;;;;;;;1.67;0.55;;;5.70;99.90;;;;;;5100304;28;20047;-81
2022/04/03 10:47:05;;;;;;;2.00;0.75;;;5.50;99.90;;;;;;5090298;28;20416;-80
2022/04/03 10:49:37;;;;;;;0.45;0.43;;;5.20;99.90;;;;;;5108686;27;20043;-81
2022/04/03 10:52:04;;;;;;;1.90;0.40;;;5.00;99.90;;;;;;5071528;28;20393;-80
2022/04/03 10:54:31;;;;;;;1.90;0.85;;;4.80;99.90;;;;;;5087423;28;20048;-80
2022/04/03 10:57:32;;;;;;;1.75;0.80;;;4.50;99.90;;;;;;5087375;28;20039;-79
2022/04/03 11:00:13;;;;;;;2.78;0.50;;;4.40;99.90;;;;;;5083035;27;20084;-80
2022/04/03 11:02:41;;;;;;;2.05;0.35;;;4.50;99.90;;;;;;5091120;27;20048;-80
2022/04/03 11:05:40;;;;;;;2.15;1.00;;;4.70;99.90;;;;;;5110193;27;20039;-80
2022/04/03 11:08:05;;;;;;;3.65;1.38;;;4.90;99.90;;;;;;5103923;28;20046;-81
2022/04/03 11:10:57;;;;;;;2.67;0.30;;;4.80;99.90;;;;;;5111049;28;20412;-81
2022/04/03 11:13:34;;;;;;;2.33;0.60;;;5.10;99.90;;;;;;5096965;27;20052;-79
2022/04/03 11:16:05;;;;;;;2.88;0.40;;;5.00;99.90;;;;;;5090988;28;20112;-80
2022/04/03 11:18:35;;;;;;;2.10;0.73;;;5.00;99.90;;;;;;5097797;28;20632;-80
2022/04/03 11:21:10;;;;;;;1.48;1.00;;;5.00;99.90;;;;;;5091741;28;20494;-80
2022/04/03 11:23:45;;;;;;;1.00;0.50;;;5.10;99.90;;;;;;5107491;27;20494;-80
2022/04/03 11:26:11;;;;;;;1.83;1.27;;;4.90;99.90;;;;;;5107140;28;20115;-80
2022/04/03 11:28:37;;;;;;;7.32;1.02;;;5.00;99.90;;;;;;5106922;27;20058;-80
2022/04/03 11:31:04;;;;;;;3.50;0.50;;;5.10;99.90;;;;;;5093167;28;20039;-80
2022/04/03 11:33:31;;;;;;;5.38;0.90;;;5.30;99.90;;;;;;5103685;28;20119;-79
2022/04/03 11:36:07;;;;;;;4.07;1.00;;;5.30;99.90;;;;;;5114191;27;20054;-77
2022/04/03 11:38:35;;;;;;;2.95;0.80;;;5.30;99.90;;;;;;5108193;27;20546;-78
2022/04/03 11:41:06;;;;;;;7.22;1.95;;;5.60;99.90;;;;;;5110195;27;20507;-78
2022/04/03 11:43:31;;;;;;;5.47;1.58;;;5.90;99.90;;;;;;5109714;27;20560;-78
2022/04/03 11:46:02;;;;;;;2.00;1.25;;;6.20;99.90;;;;;;5103311;28;20122;-79
2022/04/03 11:48:31;;;;;;;6.07;1.73;;;6.10;99.90;;;;;;5106284;28;20497;-77
2022/04/03 11:51:08;;;;;;;2.50;0.77;;;6.60;99.90;;;;;;5103511;28;20185;-77
2022/04/03 11:53:35;;;;;;;4.15;1.60;;;6.60;99.90;;;;;;5092144;27;20043;-78
2022/04/03 11:56:05;;;;;;;4.30;1.52;;;6.40;99.90;;;;;;5104978;27;20039;-79
2022/04/03 11:58:32;;;;;;;1.67;0.82;;;6.80;99.90;;;;;;5120178;27;20067;-78
2022/04/03 12:00:58;;;;;;;9.02;1.48;;;7.10;99.90;;;;;;5108305;28;20039;-78
2022/04/03 12:03:27;;;;;;;4.88;1.38;;;7.10;99.90;;;;;;5099676;27;20063;-78
2022/04/03 12:06:14;;;;;;;0.55;0.50;;;7.60;99.90;;;;;;5116620;27;20039;-78
2022/04/03 12:08:41;;;;;;;2.47;0.85;;;7.80;99.90;;;;;;5103506;27;20055;-79
2022/04/03 12:11:24;;;;;;;1.33;0.80;;;7.70;99.90;;;;;;5111649;27;20047;-79
2022/04/03 12:13:54;;;;;;;5.32;1.30;;;7.80;99.90;;;;;;5110103;27;20044;-79
2022/04/03 12:16:37;;;;;;;2.08;0.80;;;8.20;99.90;;;;;;5099035;28;20118;-79
2022/04/03 12:19:15;;;;;;;3.15;0.90;;;8.60;99.90;;;;;;5100844;28;20052;-79
2022/04/03 12:21:47;;;;;;;2.30;0.80;;;8.60;99.90;;;;;;5094644;28;20130;-80
2022/04/03 12:24:18;;;;;;;3.45;1.15;;;8.20;99.90;;;;;;5124448;27;20098;-79
2022/04/03 12:26:47;;;;;;;0.28;0.28;;;8.20;99.90;;;;;;5110124;28;20052;-80
2022/04/03 12:29:13;;;;;;;3.17;0.70;;;8.50;99.90;;;;;;5110280;27;20042;-81
2022/04/03 12:31:39;;;;;;;2.05;0.30;;;8.60;99.90;;;;;;5087838;28;20051;-78
2022/04/03 12:34:07;;;;;;;0.52;0.43;;;9.00;99.90;;;;;;5097225;28;20131;-79
2022/04/03 12:36:44;;;;;;;2.83;1.05;;;9.20;99.90;;;;;;5103942;28;20051;-80
2022/04/03 12:39:29;;;;;;;2.45;0.68;;;8.70;99.90;;;;;;5102864;28;20097;-80
2022/04/03 12:41:56;;;;;;;6.60;0.90;;;8.50;99.90;;;;;;5106854;28;20165;-80
2022/04/03 12:44:21;;;;;;;2.92;0.30;;;8.40;99.90;;;;;;5105165;28;20107;-80
2022/04/03 12:46:47;;;;;;;3.90;0.47;;;8.40;99.90;;;;;;5100603;28;20119;-78
2022/04/03 12:49:19;;;;;;;2.15;0.70;;;8.30;99.90;;;;;;5096761;28;20044;-80
2022/04/03 12:51:46;;;;;;;0.60;0.52;;;8.40;99.90;;;;;;5114598;27;20071;-79
2022/04/03 12:54:12;;;;;;;0.30;0.30;;;8.40;99.90;;;;;;5099364;27;20107;-79
2022/04/03 12:59:22;;;;;;;3.75;0.65;;;7.90;99.90;;;;;;5105601;28;20086;-79
2022/04/03 13:01:55;;;;;;;2.92;0.40;;;8.20;99.90;;;;;;5109170;28;20051;-78